Time;durP1;ratioP1;P1;durP2;ratioP2;P2;SDS_P1;SDS_P2;PMS_P1;PMS_P2;Temp;Humidity;BMP_temperature;BMP_pressure;BME280_temperature;BME280_humidity;BME280_pressure;Samples;Min_cycle;Max_cycle;Signal;HPM_P1;HPM_P2
2021/12/08 00:01:16;;;;;;;15.55;4.38;;;0.90;99.90;;;;;;5080548;28;20094;-59
2021/12/08 00:03:42;;;;;;;9.52;2.95;;;0.90;99.90;;;;;;5078776;28;20906;-59
2021/12/08 00:06:08;;;;;;;12.73;3.17;;;0.90;99.90;;;;;;5079151;28;20507;-58
2021/12/08 00:08:34;;;;;;;9.90;2.53;;;0.90;99.90;;;;;;5082544;28;20032;-59
2021/12/08 00:13:30;;;;;;;9.57;3.80;;;0.90;99.90;;;;;;5076422;28;20044;-56
2021/12/08 00:15:58;;;;;;;8.70;2.97;;;0.90;99.90;;;;;;5081596;28;20048;-58
2021/12/08 00:18:29;;;;;;;14.18;4.07;;;0.80;99.90;;;;;;5070864;28;20071;-55
2021/12/08 00:20:58;;;;;;;9.77;3.38;;;0.80;99.90;;;;;;5067302;28;20033;-56
2021/12/08 00:23:25;;;;;;;15.23;3.75;;;0.80;99.90;;;;;;5065017;28;20047;-60
2021/12/08 00:25:51;;;;;;;13.70;3.90;;;0.70;99.90;;;;;;5068399;28;20732;-56
2021/12/08 00:28:17;;;;;;;12.32;3.10;;;0.70;99.90;;;;;;5069268;28;20040;-59
2021/12/08 00:30:46;;;;;;;9.05;3.05;;;0.70;99.90;;;;;;5064746;28;20064;-59
2021/12/08 00:33:12;;;;;;;11.05;3.47;;;0.70;99.90;;;;;;5048780;28;20033;-57
2021/12/08 00:35:40;;;;;;;7.07;3.10;;;0.70;99.90;;;;;;5067625;28;20047;-59
2021/12/08 00:38:07;;;;;;;9.98;3.97;;;0.70;99.90;;;;;;5069176;28;20040;-59
2021/12/08 00:40:33;;;;;;;10.30;3.17;;;0.70;99.90;;;;;;5067853;28;20045;-59
2021/12/08 00:42:59;;;;;;;10.30;3.33;;;0.60;99.90;;;;;;5059746;28;20040;-58
2021/12/08 00:45:26;;;;;;;10.02;3.25;;;0.60;99.90;;;;;;5067636;28;20141;-53
2021/12/08 00:47:53;;;;;;;8.57;2.88;;;0.60;99.90;;;;;;5069224;28;20043;-57
2021/12/08 00:50:22;;;;;;;8.60;2.83;;;0.60;99.90;;;;;;5067009;28;20032;-56
2021/12/08 00:52:49;;;;;;;7.50;2.85;;;0.60;99.90;;;;;;5066154;28;20101;-57
2021/12/08 00:55:15;;;;;;;5.53;2.83;;;0.50;99.90;;;;;;5063861;28;20036;-59
2021/12/08 00:57:41;;;;;;;12.77;3.10;;;0.60;99.90;;;;;;5068647;28;20094;-57
2021/12/08 01:00:18;;;;;;;12.88;2.72;;;0.60;99.90;;;;;;5067425;28;20040;-59
2021/12/08 01:02:43;;;;;;;;;;;0.60;99.90;;;;;;5063586;28;20048;-58
2021/12/08 01:05:11;;;;;;;10.80;2.70;;;0.60;99.90;;;;;;5063985;28;20344;-58
2021/12/08 01:07:37;;;;;;;10.95;2.67;;;0.60;99.90;;;;;;5060819;28;20523;-53
2021/12/08 01:10:06;;;;;;;8.10;2.80;;;0.60;99.90;;;;;;5064342;28;20028;-59
2021/12/08 01:12:32;;;;;;;6.28;2.47;;;0.60;99.90;;;;;;5063814;28;20531;-59
2021/12/08 01:14:58;;;;;;;5.22;2.50;;;0.50;99.90;;;;;;5063232;28;20036;-57
2021/12/08 01:17:23;;;;;;;4.68;1.92;;;0.60;99.90;;;;;;5066349;28;20694;-53
2021/12/08 01:19:49;;;;;;;9.30;2.47;;;0.60;99.90;;;;;;5066590;28;20079;-60
2021/12/08 01:22:15;;;;;;;8.20;2.03;;;0.60;99.90;;;;;;5065489;28;20057;-57
2021/12/08 01:24:41;;;;;;;4.70;1.77;;;0.60;99.90;;;;;;5062499;28;20073;-58
2021/12/08 01:27:06;;;;;;;12.77;2.63;;;0.60;99.90;;;;;;5064614;28;20048;-56
2021/12/08 01:29:32;;;;;;;8.38;2.10;;;0.60;99.90;;;;;;5064162;28;20044;-60
2021/12/08 01:31:58;;;;;;;4.65;2.42;;;0.60;99.90;;;;;;5062597;28;20032;-60
2021/12/08 01:34:23;;;;;;;4.28;2.10;;;0.60;99.90;;;;;;5067527;28;20496;-58
2021/12/08 01:36:49;;;;;;;4.97;1.67;;;0.50;99.90;;;;;;5066924;28;20539;-56
2021/12/08 01:39:14;;;;;;;3.92;2.20;;;0.50;99.90;;;;;;5067404;28;20040;-60
2021/12/08 01:41:40;;;;;;;6.10;2.05;;;0.60;99.90;;;;;;5064697;28;20045;-57
2021/12/08 01:46:53;;;;;;;3.20;1.80;;;0.60;99.90;;;;;;5066921;28;20041;-58
2021/12/08 01:49:19;;;;;;;7.00;2.33;;;0.50;99.90;;;;;;5066279;28;20043;-56
2021/12/08 01:51:45;;;;;;;4.65;2.22;;;0.50;99.90;;;;;;5067280;28;20041;-60
2021/12/08 01:54:11;;;;;;;6.00;2.22;;;0.50;99.90;;;;;;5066694;28;20040;-60
2021/12/08 01:56:37;;;;;;;3.15;1.80;;;0.50;99.90;;;;;;5066368;28;20274;-58
2021/12/08 01:59:05;;;;;;;5.10;2.20;;;0.50;99.90;;;;;;5067357;28;20119;-55
2021/12/08 02:01:33;;;;;;;3.25;2.00;;;0.50;99.90;;;;;;5060878;28;20036;-59
2021/12/08 02:04:03;;;;;;;6.20;2.20;;;0.50;99.90;;;;;;5066474;28;20045;-57
2021/12/08 02:06:34;;;;;;;3.67;2.13;;;0.50;99.90;;;;;;5067127;28;20132;-58
2021/12/08 02:09:02;;;;;;;3.35;2.15;;;0.50;99.90;;;;;;5067265;28;20045;-54
2021/12/08 02:11:27;;;;;;;5.43;2.33;;;0.50;99.90;;;;;;5064481;28;20048;-58
2021/12/08 02:14:00;;;;;;;13.05;2.17;;;0.40;99.90;;;;;;5063014;28;20093;-56
2021/12/08 02:16:25;;;;;;;3.90;1.98;;;0.40;99.90;;;;;;5062806;28;20714;-60
2021/12/08 02:18:52;;;;;;;3.03;1.70;;;0.50;99.90;;;;;;5062862;28;20079;-55
2021/12/08 02:21:30;;;;;;;2.72;1.70;;;0.50;99.90;;;;;;5062383;28;20044;-59
2021/12/08 02:24:00;;;;;;;3.83;1.85;;;0.40;99.90;;;;;;5063948;28;20087;-58
2021/12/08 02:26:27;;;;;;;2.78;1.52;;;0.40;99.90;;;;;;5061605;28;20514;-59
2021/12/08 02:28:54;;;;;;;4.35;1.77;;;0.40;99.90;;;;;;5063291;28;20078;-59
2021/12/08 02:31:30;;;;;;;2.10;1.40;;;0.40;99.90;;;;;;5061130;28;20115;-55
2021/12/08 02:47:57;;;;;;;1.83;1.10;;;0.40;99.90;;;;;;5062998;28;20045;-60
2021/12/08 02:50:32;;;;;;;3.40;1.35;;;0.30;99.90;;;;;;5064515;28;20135;-53
2021/12/08 02:52:58;;;;;;;1.63;0.93;;;0.40;99.90;;;;;;5061855;28;20064;-55
2021/12/08 02:55:26;;;;;;;1.77;1.05;;;0.40;99.90;;;;;;5060678;28;20098;-54
2021/12/08 02:57:52;;;;;;;3.80;0.85;;;0.40;99.90;;;;;;5066135;28;20124;-56
2021/12/08 03:00:24;;;;;;;18.05;1.20;;;0.40;99.90;;;;;;5064086;28;20112;-52
2021/12/08 03:02:51;;;;;;;1.55;0.75;;;0.40;99.90;;;;;;5061748;28;20067;-54
2021/12/08 03:05:17;;;;;;;1.65;0.95;;;0.40;99.90;;;;;;5063470;28;20032;-58
2021/12/08 03:07:43;;;;;;;2.42;0.90;;;0.30;99.90;;;;;;5066937;28;20044;-58
2021/12/08 03:10:13;;;;;;;1.30;0.85;;;0.30;99.90;;;;;;5066447;28;20097;-55
2021/12/08 03:12:39;;;;;;;1.83;0.80;;;0.40;99.90;;;;;;5063737;28;20072;-55
2021/12/08 03:15:06;;;;;;;1.45;0.90;;;0.50;99.90;;;;;;5067129;28;20123;-60
2021/12/08 03:17:35;;;;;;;1.55;0.93;;;0.40;99.90;;;;;;5066407;28;20501;-60
2021/12/08 03:20:06;;;;;;;1.77;0.90;;;0.50;99.90;;;;;;5066922;28;20504;-59
2021/12/08 03:22:35;;;;;;;1.90;1.10;;;0.40;99.90;;;;;;5065674;28;20135;-61
2021/12/08 03:25:04;;;;;;;2.13;1.27;;;0.40;99.90;;;;;;5065850;28;20097;-59
2021/12/08 03:27:36;;;;;;;1.08;0.90;;;0.50;99.90;;;;;;5066599;28;20102;-58
2021/12/08 03:30:14;;;;;;;1.55;0.95;;;0.50;99.90;;;;;;5064496;28;20032;-59
2021/12/08 03:32:40;;;;;;;1.40;1.05;;;0.50;99.90;;;;;;5060260;28;20127;-59
2021/12/08 03:35:12;;;;;;;2.75;0.98;;;0.40;99.90;;;;;;5062192;28;20576;-55
2021/12/08 03:37:43;;;;;;;1.88;0.90;;;0.40;99.90;;;;;;5059088;28;20041;-60
2021/12/08 03:40:17;;;;;;;1.80;1.20;;;0.50;99.90;;;;;;5062618;28;20262;-58
2021/12/08 03:42:44;;;;;;;2.35;0.98;;;0.50;99.90;;;;;;5060128;28;20727;-60
2021/12/08 03:45:15;;;;;;;2.35;1.17;;;0.50;99.90;;;;;;5064475;28;20067;-60
2021/12/08 03:47:46;;;;;;;1.83;1.02;;;0.60;99.90;;;;;;5066715;28;20048;-56
2021/12/08 03:50:15;;;;;;;1.35;0.75;;;0.60;99.90;;;;;;5064492;28;20039;-60
2021/12/08 03:52:41;;;;;;;1.27;0.77;;;0.60;99.90;;;;;;5064043;28;20040;-56
2021/12/08 03:55:11;;;;;;;1.58;0.90;;;0.60;99.90;;;;;;5068718;28;20044;-58
2021/12/08 03:57:36;;;;;;;1.35;1.02;;;0.60;99.90;;;;;;5066246;28;20040;-59
2021/12/08 04:00:08;;;;;;;1.92;1.00;;;0.60;99.90;;;;;;5069177;28;20029;-59
2021/12/08 04:02:34;;;;;;;2.10;1.00;;;0.50;99.90;;;;;;5065742;28;20071;-58
2021/12/08 04:05:02;;;;;;;1.52;0.90;;;0.60;99.90;;;;;;5049605;28;20072;-58
2021/12/08 04:07:27;;;;;;;2.78;0.80;;;0.60;99.90;;;;;;5069725;28;20795;-59
2021/12/08 04:09:53;;;;;;;1.08;0.73;;;0.70;99.90;;;;;;5069266;28;20119;-58
2021/12/08 04:12:20;;;;;;;0.82;0.70;;;0.60;99.90;;;;;;5064852;28;20551;-59
2021/12/08 04:15:06;;;;;;;2.53;0.93;;;0.60;99.90;;;;;;5065228;28;20080;-59
2021/12/08 04:17:40;;;;;;;1.40;0.90;;;0.60;99.90;;;;;;5064313;28;20036;-61
2021/12/08 04:20:17;;;;;;;1.02;0.52;;;0.60;99.90;;;;;;5063591;28;20087;-62
2021/12/08 04:22:46;;;;;;;2.63;1.42;;;0.60;99.90;;;;;;5062465;28;20199;-60
2021/12/08 04:25:21;;;;;;;1.70;0.77;;;0.70;99.90;;;;;;5064638;28;20043;-56
2021/12/08 04:27:49;;;;;;;3.70;0.85;;;0.70;99.90;;;;;;5066452;28;20102;-60
2021/12/08 04:30:20;;;;;;;0.75;0.57;;;0.60;99.90;;;;;;5066862;28;20043;-55
2021/12/08 04:32:46;;;;;;;1.55;0.60;;;0.70;99.90;;;;;;5069392;28;20552;-59
2021/12/08 04:35:15;;;;;;;2.05;1.25;;;0.70;99.90;;;;;;5068722;28;20047;-50
2021/12/08 04:37:46;;;;;;;2.28;1.35;;;0.60;99.90;;;;;;5069876;28;20040;-57
2021/12/08 04:40:32;;;;;;;2.35;0.90;;;0.70;99.90;;;;;;5069570;28;20142;-59
2021/12/08 04:43:15;;;;;;;1.97;0.90;;;0.70;99.90;;;;;;5065137;28;20033;-57
2021/12/08 05:07:47;;;;;;;3.15;1.30;;;0.60;99.90;;;;;;5062955;28;20048;-59
2021/12/08 05:10:16;;;;;;;;;;;0.60;99.90;;;;;;5068489;28;20730;-59
2021/12/08 05:12:45;;;;;;;4.35;1.65;;;0.60;99.90;;;;;;5065158;28;19916;-60
2021/12/08 05:15:25;;;;;;;3.75;1.80;;;0.60;99.90;;;;;;5062367;28;20037;-57
2021/12/08 05:18:15;;;;;;;4.88;1.50;;;0.60;99.90;;;;;;5065739;28;20432;-57
2021/12/08 05:20:49;;;;;;;4.53;1.70;;;0.60;99.90;;;;;;5066756;28;20048;-57
2021/12/08 05:23:29;;;;;;;2.22;1.50;;;0.60;99.90;;;;;;5068172;28;20617;-56
2021/12/08 05:25:55;;;;;;;3.20;1.60;;;0.70;99.90;;;;;;5066455;28;20127;-59
2021/12/08 05:28:23;;;;;;;3.10;1.42;;;0.80;99.90;;;;;;5064924;28;20115;-57
2021/12/08 05:30:56;;;;;;;5.32;2.38;;;0.70;99.90;;;;;;5065856;28;21092;-56
2021/12/08 05:33:23;;;;;;;3.08;2.35;;;0.70;99.90;;;;;;5066006;28;20029;-60
2021/12/08 05:35:49;;;;;;;3.47;2.28;;;0.70;99.90;;;;;;5066971;28;20121;-55
2021/12/08 05:38:16;;;;;;;3.33;2.10;;;0.60;99.90;;;;;;5067394;28;20503;-56
2021/12/08 05:40:52;;;;;;;4.82;2.28;;;0.60;99.90;;;;;;5065948;28;20040;-58
2021/12/08 05:43:19;;;;;;;6.65;2.42;;;0.70;99.90;;;;;;5060532;28;20047;-59
2021/12/08 05:45:46;;;;;;;8.02;2.63;;;0.70;99.90;;;;;;5062529;28;20044;-61
2021/12/08 05:48:12;;;;;;;5.30;2.35;;;0.70;99.90;;;;;;5064222;28;20123;-56
2021/12/08 05:51:01;;;;;;;7.68;3.00;;;0.60;99.90;;;;;;5065681;28;20119;-59
2021/12/08 05:53:27;;;;;;;7.03;2.28;;;0.60;99.90;;;;;;5051389;28;20044;-58
2021/12/08 05:55:54;;;;;;;4.18;2.78;;;0.70;99.90;;;;;;5063143;28;20059;-57
2021/12/08 05:58:22;;;;;;;4.28;3.20;;;0.70;99.90;;;;;;5062367;28;20085;-57
2021/12/08 06:01:00;;;;;;;6.93;2.88;;;0.70;99.90;;;;;;5062785;28;20036;-59
2021/12/08 06:03:26;;;;;;;7.30;3.33;;;0.70;99.90;;;;;;5067038;28;20495;-56
2021/12/08 06:05:54;;;;;;;6.40;3.40;;;0.70;99.90;;;;;;5065696;28;20102;-57
2021/12/08 06:08:21;;;;;;;6.00;3.28;;;0.70;99.90;;;;;;5065761;28;20504;-60
2021/12/08 06:10:48;;;;;;;9.73;3.42;;;0.70;99.90;;;;;;5063834;28;20044;-61
2021/12/08 06:13:16;;;;;;;5.75;3.42;;;0.70;99.90;;;;;;5062944;28;20119;-55
2021/12/08 06:15:45;;;;;;;11.48;4.32;;;0.70;99.90;;;;;;5065037;28;20045;-60
2021/12/08 06:18:10;;;;;;;10.65;3.38;;;0.80;99.90;;;;;;5065501;28;20439;-59
2021/12/08 06:20:37;;;;;;;6.45;3.17;;;0.80;99.90;;;;;;5065816;28;20115;-55
2021/12/08 06:23:06;;;;;;;9.00;3.58;;;0.80;99.90;;;;;;5064239;28;20036;-61
2021/12/08 06:25:32;;;;;;;7.55;3.78;;;0.80;99.90;;;;;;5064278;28;21020;-59
2021/12/08 06:27:58;;;;;;;13.40;6.47;;;0.70;99.90;;;;;;5065803;28;20470;-60
2021/12/08 06:30:27;;;;;;;10.88;5.13;;;0.70;99.90;;;;;;5064896;28;20044;-57
2021/12/08 06:32:53;;;;;;;17.02;8.68;;;0.70;99.90;;;;;;5063783;28;20124;-55
2021/12/08 06:35:26;;;;;;;7.10;4.20;;;0.70;99.90;;;;;;5061547;28;20028;-60
2021/12/08 06:37:52;;;;;;;10.65;5.05;;;0.70;99.90;;;;;;5062362;28;20458;-60
2021/12/08 06:40:21;;;;;;;8.98;4.38;;;0.70;99.90;;;;;;5062234;28;20585;-60
2021/12/08 06:42:52;;;;;;;6.28;4.25;;;0.70;99.90;;;;;;5062650;28;20063;-59
2021/12/08 06:45:22;;;;;;;26.58;11.68;;;0.80;99.90;;;;;;5065288;28;20036;-57
2021/12/08 06:47:52;;;;;;;14.25;5.43;;;0.80;99.90;;;;;;5064449;28;20045;-57
2021/12/08 06:50:32;;;;;;;8.07;5.30;;;0.80;99.90;;;;;;5063861;28;20093;-55
2021/12/08 06:52:58;;;;;;;15.55;7.13;;;0.80;99.90;;;;;;5065329;28;20041;-55
2021/12/08 06:55:35;;;;;;;10.48;5.70;;;0.80;99.90;;;;;;5066743;28;20041;-58
2021/12/08 06:58:07;;;;;;;6.78;4.22;;;0.80;99.90;;;;;;5066018;28;20319;-53
2021/12/08 07:03:31;;;;;;;8.38;4.70;;;0.80;99.90;;;;;;5061403;28;20036;-57
2021/12/08 07:08:33;;;;;;;9.63;4.78;;;0.80;99.90;;;;;;5065124;28;20459;-57
2021/12/08 07:11:01;;;;;;;6.18;4.05;;;0.80;99.90;;;;;;5070170;28;20487;-60
2021/12/08 07:13:31;;;;;;;11.68;4.40;;;0.80;99.90;;;;;;5075872;28;20040;-60
2021/12/08 07:16:18;;;;;;;8.18;4.32;;;0.90;99.90;;;;;;5071528;28;20094;-59
2021/12/08 07:18:58;;;;;;;9.95;5.50;;;0.80;99.90;;;;;;5073573;28;20041;-59
2021/12/08 07:21:29;;;;;;;7.03;4.15;;;0.80;99.90;;;;;;5067768;28;20052;-59
2021/12/08 07:24:02;;;;;;;10.82;5.13;;;0.80;99.90;;;;;;5066902;28;20519;-58
2021/12/08 07:26:32;;;;;;;9.88;5.07;;;0.80;99.90;;;;;;5066644;28;20067;-58
2021/12/08 07:28:59;;;;;;;12.60;5.68;;;0.80;99.90;;;;;;5068799;28;20108;-59
2021/12/08 07:31:27;;;;;;;11.23;5.53;;;0.80;99.90;;;;;;5067537;28;20513;-58
2021/12/08 07:33:54;;;;;;;6.82;4.53;;;0.80;99.90;;;;;;5064748;28;20099;-58
2021/12/08 07:36:22;;;;;;;12.60;4.70;;;0.90;99.90;;;;;;5068487;28;20404;-59
2021/12/08 07:38:53;;;;;;;8.48;4.95;;;0.90;99.90;;;;;;5068404;28;20035;-57
2021/12/08 07:41:32;;;;;;;10.95;5.57;;;0.90;99.90;;;;;;5067116;28;20544;-60
2021/12/08 07:44:02;;;;;;;11.13;4.68;;;0.80;99.90;;;;;;5067069;28;20040;-58
2021/12/08 07:46:32;;;;;;;8.68;5.32;;;0.90;99.90;;;;;;5066036;28;20127;-57
2021/12/08 07:49:08;;;;;;;9.52;5.40;;;0.90;99.90;;;;;;5070011;28;20094;-57
2021/12/08 07:51:41;;;;;;;9.18;4.78;;;1.00;99.90;;;;;;5067679;28;20036;-59
2021/12/08 07:54:10;;;;;;;8.40;4.38;;;1.00;99.90;;;;;;5070549;28;20040;-56
2021/12/08 07:56:40;;;;;;;6.43;4.38;;;1.10;99.90;;;;;;5068111;28;20137;-60
2021/12/08 07:59:10;;;;;;;8.88;5.25;;;1.10;99.90;;;;;;5070163;28;20047;-59
2021/12/08 08:01:42;;;;;;;10.82;4.47;;;1.10;99.90;;;;;;5065038;28;20041;-55
2021/12/08 08:04:11;;;;;;;8.48;5.13;;;1.00;99.90;;;;;;5067763;28;20539;-55
2021/12/08 08:06:41;;;;;;;12.80;6.65;;;1.00;99.90;;;;;;5068692;28;20454;-59
2021/12/08 08:09:13;;;;;;;11.40;6.55;;;1.00;99.90;;;;;;5068639;28;20041;-60
2021/12/08 08:11:43;;;;;;;13.88;6.57;;;0.90;99.90;;;;;;5068847;28;20045;-57
2021/12/08 08:14:11;;;;;;;11.02;6.95;;;0.90;99.90;;;;;;5061551;28;20120;-59
2021/12/08 08:16:39;;;;;;;16.38;6.63;;;0.90;99.90;;;;;;5070764;28;20626;-60
2021/12/08 08:19:12;;;;;;;14.00;7.15;;;1.00;99.90;;;;;;5070647;28;20040;-61
2021/12/08 08:21:45;;;;;;;18.70;7.03;;;0.90;99.90;;;;;;5062985;28;20040;-62
2021/12/08 08:24:12;;;;;;;12.65;6.65;;;0.90;99.90;;;;;;5060155;28;20036;-57
2021/12/08 08:26:41;;;;;;;20.92;7.57;;;1.00;99.90;;;;;;5066046;28;20048;-59
2021/12/08 08:29:08;;;;;;;14.18;7.93;;;1.00;99.90;;;;;;5067502;28;20111;-58
2021/12/08 08:31:46;;;;;;;12.05;6.63;;;1.00;99.90;;;;;;5066823;28;20064;-57
2021/12/08 08:34:12;;;;;;;9.30;5.72;;;1.10;99.90;;;;;;5062328;28;20094;-60
2021/12/08 08:36:45;;;;;;;15.25;6.50;;;1.10;99.90;;;;;;5070316;28;20051;-59
2021/12/08 08:39:16;;;;;;;13.60;5.85;;;1.10;99.90;;;;;;5097249;28;20545;-66
2021/12/08 08:41:59;;;;;;;9.63;5.40;;;1.20;99.90;;;;;;5066078;28;20123;-60
2021/12/08 08:44:54;;;;;;;10.30;5.93;;;1.20;99.90;;;;;;5067431;28;20044;-60
2021/12/08 08:47:34;;;;;;;10.95;5.95;;;1.20;99.90;;;;;;5066200;28;20037;-59
2021/12/08 08:50:00;;;;;;;8.07;5.10;;;1.20;99.90;;;;;;5069470;28;20123;-58
2021/12/08 08:52:34;;;;;;;9.32;5.00;;;1.20;99.90;;;;;;5061620;28;20439;-55
2021/12/08 08:55:10;;;;;;;9.30;4.57;;;1.30;99.90;;;;;;5066153;28;20048;-57
2021/12/08 08:57:38;;;;;;;7.00;4.95;;;1.40;99.90;;;;;;5065217;28;20086;-58
2021/12/08 09:00:19;;;;;;;9.70;5.45;;;1.30;99.90;;;;;;5069734;28;20131;-60
2021/12/08 09:02:46;;;;;;;9.85;4.75;;;1.30;99.90;;;;;;5064288;28;20582;-59
2021/12/08 09:05:17;;;;;;;13.82;5.35;;;1.30;99.90;;;;;;5067047;28;20036;-57
2021/12/08 09:07:47;;;;;;;10.02;5.90;;;1.40;99.90;;;;;;5067904;28;20049;-53
2021/12/08 09:10:21;;;;;;;14.07;7.10;;;1.40;99.90;;;;;;5069167;28;20527;-57
2021/12/08 09:13:02;;;;;;;10.50;6.10;;;1.50;99.90;;;;;;5068676;28;20137;-59
2021/12/08 09:15:38;;;;;;;11.65;5.00;;;1.50;99.90;;;;;;5068291;28;20513;-60
2021/12/08 09:18:15;;;;;;;9.20;5.97;;;1.60;99.90;;;;;;5069524;28;20040;-60
2021/12/08 09:20:55;;;;;;;6.72;4.72;;;1.60;99.90;;;;;;5068221;28;20041;-58
2021/12/08 09:23:26;;;;;;;8.55;5.25;;;1.70;99.90;;;;;;5062500;28;20036;-58
2021/12/08 09:26:04;;;;;;;10.20;5.28;;;1.80;99.90;;;;;;5067545;28;20076;-60
2021/12/08 09:28:37;;;;;;;6.90;4.18;;;1.80;99.90;;;;;;5068407;28;20044;-57
2021/12/08 09:31:08;;;;;;;8.63;4.68;;;1.70;99.90;;;;;;5061857;28;20037;-57
2021/12/08 09:33:57;;;;;;;7.78;4.72;;;1.80;99.90;;;;;;5063740;28;20041;-60
2021/12/08 09:36:39;;;;;;;6.72;3.90;;;1.90;99.90;;;;;;5062596;28;20538;-59
2021/12/08 09:39:14;;;;;;;11.57;5.13;;;2.00;99.90;;;;;;5064576;28;20413;-59
2021/12/08 09:41:54;;;;;;;12.88;5.30;;;1.90;99.90;;;;;;5061644;28;20032;-58
2021/12/08 09:44:24;;;;;;;8.13;4.90;;;1.90;99.90;;;;;;5056313;28;20040;-58
2021/12/08 09:46:51;;;;;;;8.70;4.25;;;2.00;99.90;;;;;;5067250;28;20046;-57
2021/12/08 09:49:24;;;;;;;8.48;4.80;;;2.00;99.90;;;;;;5067743;28;20042;-60
2021/12/08 09:51:56;;;;;;;7.93;4.25;;;2.10;99.90;;;;;;5064930;28;20121;-61
2021/12/08 09:54:22;;;;;;;10.48;4.80;;;2.10;99.90;;;;;;5064718;28;20043;-52
2021/12/08 09:56:49;;;;;;;13.07;5.47;;;2.10;99.90;;;;;;5067960;28;20054;-58
2021/12/08 09:59:16;;;;;;;7.18;4.40;;;2.10;99.90;;;;;;5067979;28;20048;-57
2021/12/08 10:01:43;;;;;;;6.82;4.20;;;2.10;99.90;;;;;;5064461;28;20408;-59
2021/12/08 10:04:12;;;;;;;8.50;4.55;;;2.10;99.90;;;;;;5065286;28;20047;-60
2021/12/08 10:06:40;;;;;;;13.70;5.20;;;2.10;99.90;;;;;;5063450;28;20066;-57
2021/12/08 10:09:07;;;;;;;7.05;4.68;;;2.10;99.90;;;;;;5066984;28;20071;-57
2021/12/08 10:11:33;;;;;;;8.18;4.90;;;2.00;99.90;;;;;;5060684;28;20382;-57
2021/12/08 10:13:59;;;;;;;9.98;5.18;;;2.10;99.90;;;;;;5066562;28;20036;-60
2021/12/08 10:16:27;;;;;;;12.45;4.63;;;2.10;99.90;;;;;;5067391;28;20110;-56
2021/12/08 10:18:55;;;;;;;5.75;3.92;;;2.10;99.90;;;;;;5065013;28;20068;-59
2021/12/08 10:21:20;;;;;;;9.93;4.72;;;2.10;99.90;;;;;;5067353;28;20071;-60
2021/12/08 10:23:48;;;;;;;10.50;4.80;;;2.30;99.90;;;;;;5067513;28;20067;-59
2021/12/08 10:26:25;;;;;;;7.90;4.53;;;2.30;99.90;;;;;;5066959;28;20491;-59
2021/12/08 10:28:52;;;;;;;12.15;4.57;;;2.40;99.90;;;;;;5067752;28;20506;-59
2021/12/08 10:31:19;;;;;;;12.23;5.68;;;2.40;99.90;;;;;;5064976;28;20040;-60
2021/12/08 10:36:45;;;;;;;9.15;5.40;;;2.30;99.90;;;;;;5067169;28;20190;-59
2021/12/08 10:39:46;;;;;;;6.83;4.67;;;2.20;99.90;;;;;;5068090;28;20060;-57
2021/12/08 10:42:14;;;;;;;8.02;4.28;;;2.20;99.90;;;;;;5050586;28;20051;-59
2021/12/08 10:44:46;;;;;;;7.43;4.18;;;2.30;99.90;;;;;;5067812;28;20568;-60
2021/12/08 10:47:20;;;;;;;9.55;5.55;;;2.30;99.90;;;;;;5064448;28;20044;-57
2021/12/08 10:55:06;;;;;;;12.25;5.43;;;2.50;99.90;;;;;;5064277;28;20061;-60
2021/12/08 10:57:37;;;;;;;10.15;4.70;;;2.50;99.90;;;;;;5062709;28;20048;-60
2021/12/08 11:00:28;;;;;;;10.85;5.18;;;2.50;99.90;;;;;;5059135;28;20083;-60
2021/12/08 11:02:56;;;;;;;8.82;3.97;;;2.50;99.90;;;;;;5054648;28;20044;-59
2021/12/08 11:05:24;;;;;;;12.48;4.88;;;2.60;99.90;;;;;;5066673;28;20040;-56
2021/12/08 11:08:08;;;;;;;9.88;5.35;;;2.60;99.90;;;;;;5067147;28;20045;-59
2021/12/08 11:10:38;;;;;;;8.70;4.90;;;2.60;99.90;;;;;;5066008;28;20040;-58
2021/12/08 11:13:05;;;;;;;10.40;5.80;;;2.60;99.90;;;;;;5063694;28;20456;-60
2021/12/08 11:15:32;;;;;;;9.57;5.63;;;2.50;99.90;;;;;;5065465;28;20083;-63
2021/12/08 11:18:14;;;;;;;8.18;4.82;;;2.40;99.90;;;;;;5067675;28;20047;-60
2021/12/08 11:20:45;;;;;;;11.43;4.93;;;2.60;99.90;;;;;;5065133;28;20405;-60
2021/12/08 11:23:15;;;;;;;8.38;5.05;;;2.60;99.90;;;;;;5063298;28;20039;-61
2021/12/08 11:25:45;;;;;;;12.30;5.85;;;2.60;99.90;;;;;;5062601;28;20530;-58
2021/12/08 11:28:33;;;;;;;8.93;5.53;;;2.60;99.90;;;;;;5064078;28;20029;-59
2021/12/08 11:31:09;;;;;;;15.35;5.82;;;2.70;99.90;;;;;;5063960;28;20114;-59
2021/12/08 11:33:37;;;;;;;;;;;2.70;99.90;;;;;;5061588;28;20512;-56
2021/12/08 11:36:13;;;;;;;11.23;5.40;;;2.60;99.90;;;;;;5062397;28;20450;-59
2021/12/08 11:38:40;;;;;;;10.32;4.93;;;2.50;99.90;;;;;;5060782;28;20049;-60
2021/12/08 11:41:28;;;;;;;6.45;4.75;;;2.60;99.90;;;;;;5065380;28;20052;-58
2021/12/08 11:43:56;;;;;;;7.43;4.75;;;2.60;99.90;;;;;;5065329;28;20780;-58
2021/12/08 11:46:23;;;;;;;9.88;5.18;;;2.60;99.90;;;;;;5065472;28;20107;-59
2021/12/08 11:49:10;;;;;;;7.90;3.95;;;2.60;99.90;;;;;;5065677;28;20476;-59
2021/12/08 11:51:42;;;;;;;;;;;2.70;99.90;;;;;;5058705;28;20079;-58
2021/12/08 11:54:21;;;;;;;12.82;4.47;;;2.80;99.90;;;;;;5061335;28;19924;-58
2021/12/08 11:56:47;;;;;;;9.25;4.57;;;2.80;99.90;;;;;;5062346;28;20059;-59
2021/12/08 11:59:14;;;;;;;6.80;3.78;;;2.80;99.90;;;;;;5056524;28;20037;-58
2021/12/08 12:01:39;;;;;;;11.57;4.15;;;2.80;99.90;;;;;;5062932;28;20067;-59
2021/12/08 12:04:07;;;;;;;10.68;3.83;;;2.90;99.90;;;;;;5062898;28;20071;-58
2021/12/08 12:06:34;;;;;;;7.70;3.47;;;2.80;99.90;;;;;;5056841;28;20131;-59
2021/12/08 12:09:02;;;;;;;14.82;4.03;;;2.90;99.90;;;;;;5065473;28;20090;-60
2021/12/08 12:11:29;;;;;;;8.18;4.20;;;2.90;99.90;;;;;;5064705;28;20075;-59
2021/12/08 12:13:57;;;;;;;7.53;4.10;;;3.00;99.90;;;;;;5068560;28;20037;-57
2021/12/08 12:16:23;;;;;;;10.20;3.80;;;2.90;99.90;;;;;;5069910;28;20048;-60
2021/12/08 12:18:52;;;;;;;12.73;4.45;;;2.90;99.90;;;;;;5069963;28;20128;-61
2021/12/08 12:21:41;;;;;;;10.93;4.03;;;3.00;99.90;;;;;;5067919;28;20071;-55
2021/12/08 12:24:32;;;;;;;10.60;3.70;;;2.90;99.90;;;;;;5066208;28;20099;-57
2021/12/08 12:27:40;;;;;;;9.32;3.70;;;2.90;99.90;;;;;;5057541;28;20053;-59
2021/12/08 12:30:41;;;;;;;11.70;4.30;;;2.90;99.90;;;;;;5056520;28;20500;-57
2021/12/08 12:33:22;;;;;;;8.95;3.40;;;2.90;99.90;;;;;;5046146;28;20049;-56
2021/12/08 12:35:50;;;;;;;9.02;3.67;;;2.90;99.90;;;;;;5050978;28;20045;-58
2021/12/08 12:38:16;;;;;;;5.25;2.88;;;3.00;99.90;;;;;;5040712;28;20120;-58
2021/12/08 12:40:48;;;;;;;9.63;3.88;;;2.90;99.90;;;;;;5047944;28;20132;-54
2021/12/08 12:43:25;;;;;;;7.43;3.35;;;3.00;99.90;;;;;;5046238;28;20029;-52
2021/12/08 12:46:03;;;;;;;7.55;3.15;;;3.00;99.90;;;;;;5051571;28;20075;-57
2021/12/08 12:48:30;;;;;;;12.32;4.03;;;3.00;99.90;;;;;;5067322;28;20067;-53
2021/12/08 12:51:03;;;;;;;13.40;2.97;;;3.00;99.90;;;;;;5068687;28;20048;-53
2021/12/08 12:53:30;;;;;;;6.07;3.53;;;3.00;99.90;;;;;;5069053;28;20044;-58
2021/12/08 12:55:56;;;;;;;12.52;3.83;;;2.90;99.90;;;;;;5068934;28;20136;-56
2021/12/08 12:58:21;;;;;;;10.60;3.60;;;2.90;99.90;;;;;;5068848;28;20115;-57
2021/12/08 13:01:09;;;;;;;6.22;3.85;;;2.90;99.90;;;;;;5062745;28;20047;-55
2021/12/08 13:03:40;;;;;;;9.65;4.32;;;2.80;99.90;;;;;;5062165;28;20119;-54
2021/12/08 13:06:08;;;;;;;12.00;4.38;;;2.80;99.90;;;;;;5065703;28;20044;-55
2021/12/08 13:08:50;;;;;;;14.43;4.63;;;2.70;99.90;;;;;;5064241;28;20037;-58
2021/12/08 13:11:22;;;;;;;10.73;3.90;;;2.80;99.90;;;;;;5066200;28;20036;-59
2021/12/08 13:13:52;;;;;;;11.13;3.53;;;2.70;99.90;;;;;;5068861;28;20041;-58
2021/12/08 13:16:36;;;;;;;11.05;3.78;;;2.70;99.90;;;;;;5066164;28;20488;-59
2021/12/08 13:19:04;;;;;;;15.57;4.03;;;2.70;99.90;;;;;;5068102;28;20152;-55
2021/12/08 13:21:48;;;;;;;12.73;4.28;;;2.70;99.90;;;;;;5066857;28;20824;-57
2021/12/08 13:24:33;;;;;;;10.60;3.63;;;2.70;99.90;;;;;;5068435;28;20048;-55
2021/12/08 13:27:04;;;;;;;12.10;3.83;;;2.80;99.90;;;;;;5069452;28;20272;-56
2021/12/08 13:29:33;;;;;;;11.13;4.18;;;2.80;99.90;;;;;;5068381;28;20032;-57
2021/12/08 13:32:09;;;;;;;12.80;3.97;;;2.80;99.90;;;;;;5067273;28;20526;-57
2021/12/08 13:34:36;;;;;;;11.70;3.95;;;2.80;99.90;;;;;;5068307;28;20047;-57
2021/12/08 13:37:25;;;;;;;11.40;3.47;;;2.70;99.90;;;;;;5068234;28;20040;-57
2021/12/08 13:39:52;;;;;;;9.45;2.97;;;2.70;99.90;;;;;;5067942;28;20048;-57
2021/12/08 13:42:28;;;;;;;14.18;3.30;;;2.70;99.90;;;;;;5065312;28;20425;-59
2021/12/08 13:44:58;;;;;;;13.60;4.30;;;2.70;99.90;;;;;;5063274;28;20882;-60
2021/12/08 13:47:26;;;;;;;11.80;3.58;;;2.70;99.90;;;;;;5062955;28;20642;-59
2021/12/08 13:50:03;;;;;;;10.48;3.30;;;2.80;99.90;;;;;;5062050;28;20032;-59
2021/12/08 13:52:31;;;;;;;9.73;3.53;;;2.70;99.90;;;;;;5064795;28;20044;-59
2021/12/08 13:55:07;;;;;;;7.38;3.08;;;2.70;99.90;;;;;;5063917;28;20530;-59
2021/12/08 13:57:42;;;;;;;9.40;3.20;;;2.70;99.90;;;;;;5063035;28;20041;-52
2021/12/08 14:00:13;;;;;;;8.38;3.72;;;2.70;99.90;;;;;;5064417;28;20055;-59
2021/12/08 14:02:39;;;;;;;12.85;3.38;;;2.70;99.90;;;;;;5058414;28;20504;-59
2021/12/08 14:05:06;;;;;;;13.65;2.78;;;2.70;99.90;;;;;;5063309;28;20066;-59
2021/12/08 14:07:34;;;;;;;10.63;2.97;;;2.70;99.90;;;;;;5064001;28;20068;-54
2021/12/08 14:10:04;;;;;;;14.45;3.50;;;2.70;99.90;;;;;;5067665;28;20047;-58